DRBK1: Arkansas River, Derby, KS

Data processed at Fri Mar 09 2018 21:04


All information presented herein is the property of the government of the United States of America and may be revised or deleted at any time without prior notice.
Dissemination of this information without the expressed written consent of the Public Affairs Office, Tulsa District U.S. Army Corps of Engineers is strictly prohibited.
These data are gathered electronically and, as presented, have not undergone any form of quality control. These data are not guaranteed to be valid or correct.
Go to home page.
Go to station list.

Upstream stations:

Downstream station:
Previous Day
Next Day
Current Day
    
SHEF ID:       DRBK1     ARKANSAS R AT DERBY, KS
STATION TYPE:  

               PRECIP     STAGE  RIV-FLOW  BAT-LOAD
                   in        ft       cfs      volt
              Ccp-Rev   Ccp-Rev   Ccp-Rev   Ccp-Rev
(US/Central)
03/07 00:00      ----      1.56       288     12.65
03/07 01:00      ----      1.55       283     12.57
03/07 02:00      ----      1.55       283     12.57
03/07 03:00      ----      1.55       283     12.57
03/07 04:00      ----      1.54       279     12.49
03/07 05:00      ----      1.54       279     12.49
03/07 06:00      ----      1.53       274     12.49
03/07 07:00      ----      1.52       270     12.49
03/07 08:00      ----      1.49       256     12.41
03/07 09:00      ----      1.48       252     12.57
03/07 10:00      ----      1.46       243     12.57
03/07 11:00      ----      1.47       247     12.65
03/07 12:00      ----      1.48       252     12.97
03/07 13:00      ----      1.48       252     13.29
03/07 14:00      ----      1.47       247     13.29
03/07 15:00      ----      1.46       243     13.29
03/07 16:00      ----      1.48       252     13.29
03/07 17:00      ----      1.51       265     13.29
03/07 18:00      ----      1.53       274     12.97
03/07 19:00      ----      1.53       274     12.81
03/07 20:00      ----      1.55       283     12.81
03/07 21:00      ----      1.52       270     12.73
03/07 22:00      ----      1.53       274     12.73
03/07 23:00      ----      1.53       274     12.65